Bookmark and Share
Track history (hours):
 

Leandra

Last reported at 2014-Apr-20 21:29 UTC. Time now 2014-Apr-24 19:58 UTC.
Position S 31°52' E 016°31'.

Length 146 m; draft 7.3 m.

Type: Ship (hazmat cat C). MMSI: 305375000.

NotesDate/timePositionNaut miles runAvg speedWind from/ knotsBaromVisibWave heightAir tempDewpointWater temp
2014-Apr-20 21:29S 31°52' E 016°31'1614.1
2014-Apr-20 20:22S 32°05' E 016°42'1413.8
2014-Apr-20 19:23S 32°16' E 016°51'6914.1
2014-Apr-20 14:31S 33°10' E 017°41'2713.7
2014-Apr-20 12:30S 33°32' E 018°02'1313.4
2014-Apr-20 11:31S 33°42' E 018°12'1212.8
2014-Apr-20 10:33S 33°51' E 018°22'5 5.0
2014-Apr-20 09:32S 33°55' E 018°26'0 0.0
2014-Apr-20 08:32S 33°55' E 018°26'0 0.0
2014-Apr-20 07:32S 33°55' E 018°26'0 0.0
2014-Apr-20 06:32S 33°55' E 018°26'0 0.0
2014-Apr-20 05:29S 33°55' E 018°26'0 0.0
2014-Apr-20 04:29S 33°55' E 018°26'0 0.0
2014-Apr-20 03:32S 33°55' E 018°26'0 0.0
2014-Apr-20 02:23S 33°55' E 018°26'0 0.0
2014-Apr-20 01:29S 33°55' E 018°26'0 0.0
2014-Apr-20 00:32S 33°55' E 018°26'0 0.0
2014-Apr-19 23:32S 33°55' E 018°26'0 0.0
2014-Apr-19 22:29S 33°55' E 018°26'0 0.0
2014-Apr-19 21:32S 33°55' E 018°26'0 0.0
2014-Apr-19 20:32S 33°55' E 018°26'0 0.0
2014-Apr-19 19:32S 33°55' E 018°26'0 0.0
2014-Apr-19 18:29S 33°55' E 018°26'0 0.0
2014-Apr-19 17:29S 33°55' E 018°26'0 0.0
2014-Apr-19 16:29S 33°55' E 018°26'0 0.0
2014-Apr-19 15:29S 33°55' E 018°26'0 0.0
2014-Apr-19 14:29S 33°55' E 018°26'0 0.0
2014-Apr-19 13:32S 33°55' E 018°26'0 0.0
2014-Apr-19 12:32S 33°55' E 018°26'0 0.0
2014-Apr-19 11:32S 33°55' E 018°26'0 0.0
2014-Apr-19 10:32S 33°55' E 018°26'0 0.0
2014-Apr-19 09:32S 33°55' E 018°26'0 0.0
2014-Apr-19 08:32S 33°55' E 018°26'0 0.0
2014-Apr-19 07:33S 33°55' E 018°26'0 0.0
2014-Apr-19 06:32S 33°55' E 018°26'3 2.6
2014-Apr-19 05:33S 33°52' E 018°25'10 6.9
2014-Apr-19 04:09S 33°59' E 018°17'712.5
2014-Apr-19 03:34S 34°07' E 018°15'1613.3
2014-Apr-19 02:23S 34°22' E 018°17'1413.9
2014-Apr-19 01:25S 34°29' E 018°31'1213.7
2014-Apr-19 00:33S 34°35' E 018°43'1413.5
2014-Apr-18 23:32S 34°41' E 018°58'3213.1
2014-Apr-18 21:06S 34°54' E 019°34'12412.9
2014-Apr-18 11:31S 34°48' E 022°04'3112.7
2014-Apr-18 09:03S 34°42' E 022°42'7413.1
2014-Apr-18 03:28S 34°26' E 024°09'1813.5
2014-Apr-18 02:07S 34°22' E 024°30'813.6
2014-Apr-18 01:30S 34°20' E 024°40'1313.8
2014-Apr-18 00:33S 34°18' E 024°56'11113.9
2014-Apr-17 16:33S 33°44' E 027°04'1815.4
2014-Apr-17 15:22S 33°37' E 027°24'17814.6
2014-Apr-17 03:07S 31°33' E 029°56'914.6
2014-Apr-17 02:29S 31°26' E 030°03'7314.8
2014-Apr-16 21:32S 30°28' E 030°55'1212.4
2014-Apr-16 20:33S 30°16' E 030°59'1211.8
2014-Apr-16 19:33S 30°04' E 031°02'1111.4
2014-Apr-16 18:33S 29°53' E 031°05'4 4.2
2014-Apr-16 17:33S 29°52' E 031°01'0 0.1
2014-Apr-16 16:30S 29°52' E 031°00'0 0.0
2014-Apr-16 15:24S 29°52' E 031°00'0 0.0
2014-Apr-16 14:24S 29°52' E 031°00'0 0.0
2014-Apr-16 13:18S 29°52' E 031°00'0 0.0
2014-Apr-16 12:24S 29°52' E 031°00'0 0.0
2014-Apr-16 11:24S 29°52' E 031°00'0 0.0
2014-Apr-16 10:30S 29°52' E 031°00'0 0.0
2014-Apr-16 08:30S 29°52' E 031°00'0 0.0
2014-Apr-16 07:31S 29°52' E 031°00'0 0.0
2014-Apr-16 06:31S 29°52' E 031°00'0 0.0
2014-Apr-16 05:31S 29°52' E 031°00'0 0.0
2014-Apr-16 04:25S 29°52' E 031°00'0 0.0
2014-Apr-16 03:25S 29°52' E 031°00'0 0.0
2014-Apr-16 02:25S 29°52' E 031°00'0 0.0
2014-Apr-16 01:25S 29°52' E 031°00'0 0.0
2014-Apr-16 00:31S 29°52' E 031°00'0 0.0
2014-Apr-15 23:31S 29°52' E 031°00'0 0.0
2014-Apr-15 22:28S 29°52' E 031°00'0 0.0
2014-Apr-15 21:32S 29°52' E 031°00'0 0.0
2014-Apr-15 20:32S 29°52' E 031°00'0 0.0
2014-Apr-15 19:32S 29°53' E 031°00'0 0.0
2014-Apr-15 18:29S 29°52' E 031°00'0 0.0
2014-Apr-15 17:24S 29°52' E 031°00'0 0.0
2014-Apr-15 16:29S 29°52' E 031°00'0 0.0
2014-Apr-15 15:33S 29°52' E 031°00'0 0.0
2014-Apr-15 14:26S 29°52' E 031°00'0 0.0
2014-Apr-15 12:31S 29°52' E 031°00'0 0.0
2014-Apr-15 11:34S 29°52' E 031°00'0 0.0
2014-Apr-15 10:30S 29°52' E 031°00'6 2.9
2014-Apr-15 08:33S 29°49' E 031°05'4 1.7
2014-Apr-15 06:32S 29°46' E 031°08'2 2.0
2014-Apr-15 05:31S 29°45' E 031°10'4 1.1
2014-Apr-15 01:29S 29°42' E 031°14'1212.4
2014-Apr-15 00:33S 29°34' E 031°23'1212.4
2014-Apr-14 23:33S 29°25' E 031°33'1413.2
2014-Apr-14 22:30S 29°16' E 031°45'1313.8
2014-Apr-14 21:33S 29°07' E 031°56'21 0.7
2014-Apr-13 14:06S 28°48' E 032°03'0 0.0
2014-Apr-13 13:30S 28°48' E 032°03'0 0.0
2014-Apr-13 12:24S 28°47' E 032°03'0 0.0
2014-Apr-12 13:31S 28°48' E 032°03'0 0.0
2014-Apr-12 12:13S 28°48' E 032°03'0 0.0
2014-Apr-11 14:31S 28°48' E 032°03'0 0.0
2014-Apr-11 13:25S 28°48' E 032°03'0 0.0
2014-Apr-11 10:28S 28°48' E 032°03'  

Dump ship's entire track history

sailing weather and tide predictions

Leandra — V2EB4 — position and weather